createdAt,value
2019-04-29T00:00:12.074Z,99.90
2019-04-29T00:02:44.253Z,99.90
2019-04-29T00:05:15.096Z,99.90
2019-04-29T00:07:45.572Z,99.90
2019-04-29T00:10:19.881Z,99.90
2019-04-29T00:12:50.452Z,99.90
2019-04-29T00:15:40.087Z,99.90
2019-04-29T00:18:16.582Z,99.90
2019-04-29T00:20:49.289Z,99.90
2019-04-29T00:23:19.743Z,99.90
2019-04-29T00:25:51.496Z,99.90
2019-04-29T00:28:22.127Z,99.90
2019-04-29T00:30:52.652Z,99.90
2019-04-29T00:33:23.297Z,99.90
2019-04-29T00:35:53.937Z,99.90
2019-04-29T00:38:43.616Z,99.90
2019-04-29T00:41:33.421Z,99.90
2019-04-29T00:44:06.610Z,99.90
2019-04-29T00:46:37.279Z,99.90
2019-04-29T00:49:07.783Z,99.90
2019-04-29T00:51:39.452Z,99.90
2019-04-29T00:54:18.203Z,99.90
2019-04-29T00:56:48.743Z,99.90
2019-04-29T00:59:19.292Z,99.90
2019-04-29T01:01:49.991Z,99.90
2019-04-29T01:04:20.664Z,99.90
2019-04-29T01:06:51.309Z,99.90
2019-04-29T01:09:22.037Z,99.90
2019-04-29T01:11:52.653Z,99.90
2019-04-29T01:14:23.241Z,99.90
2019-04-29T01:16:53.898Z,99.90
2019-04-29T01:19:24.407Z,99.90
2019-04-29T01:21:54.855Z,99.90
2019-04-29T01:24:25.509Z,99.90
2019-04-29T01:27:15.263Z,99.90
2019-04-29T01:29:45.927Z,99.90
2019-04-29T01:32:16.668Z,99.90
2019-04-29T01:34:51.601Z,99.90
2019-04-29T01:37:34.687Z,99.90
2019-04-29T01:40:15.863Z,99.90
2019-04-29T01:42:46.431Z,99.90
2019-04-29T01:45:16.962Z,99.90
2019-04-29T01:47:47.513Z,99.90
2019-04-29T01:50:18.155Z,99.90
2019-04-29T01:52:48.690Z,99.90
2019-04-29T01:55:19.235Z,99.90
2019-04-29T01:57:49.780Z,99.90
2019-04-29T02:00:20.528Z,99.90
2019-04-29T02:02:51.152Z,99.90
2019-04-29T02:05:21.778Z,99.90
2019-04-29T02:07:52.392Z,99.90
2019-04-29T02:10:28.815Z,99.90
2019-04-29T02:12:59.523Z,99.90
2019-04-29T02:15:30.072Z,99.90
2019-04-29T02:18:00.698Z,99.90
2019-04-29T02:20:31.221Z,99.90
2019-04-29T02:23:15.729Z,99.90
2019-04-29T02:25:46.888Z,99.90
2019-04-29T02:28:17.559Z,99.90
2019-04-29T02:30:49.623Z,99.90
2019-04-29T02:33:20.311Z,99.90
2019-04-29T02:35:50.772Z,99.90
2019-04-29T02:38:35.531Z,99.90
2019-04-29T02:41:25.333Z,99.90
2019-04-29T02:43:57.657Z,99.90
2019-04-29T02:46:28.281Z,99.90
2019-04-29T02:48:59.071Z,99.90
2019-04-29T02:51:48.882Z,99.90
2019-04-29T02:54:19.656Z,99.90
2019-04-29T02:56:59.253Z,99.90
2019-04-29T02:59:33.994Z,99.90
2019-04-29T03:02:13.203Z,99.90
2019-04-29T03:05:02.835Z,99.90
2019-04-29T03:07:33.761Z,99.90
2019-04-29T03:10:04.880Z,99.90
2019-04-29T03:12:35.862Z,99.90
2019-04-29T03:15:06.926Z,99.90
2019-04-29T03:17:38.106Z,99.90
2019-04-29T03:20:18.713Z,99.90
2019-04-29T03:22:49.840Z,99.90
2019-04-29T03:25:20.406Z,99.90
2019-04-29T03:27:50.961Z,99.90
2019-04-29T03:30:21.556Z,99.90
2019-04-29T03:32:52.239Z,99.90
2019-04-29T03:35:23.903Z,99.90
2019-04-29T03:37:54.600Z,99.90
2019-04-29T03:40:25.233Z,99.90
2019-04-29T03:42:56.082Z,99.90
2019-04-29T03:45:26.764Z,99.90
2019-04-29T03:47:58.352Z,99.90
2019-04-29T03:50:28.861Z,99.90
2019-04-29T03:52:59.635Z,99.90
2019-04-29T03:55:40.147Z,99.90
2019-04-29T03:58:02.533Z,99.90
2019-04-29T04:00:33.270Z,99.90
2019-04-29T04:03:18.461Z,99.90
2019-04-29T04:05:59.192Z,99.90
2019-04-29T04:08:38.433Z,99.90
2019-04-29T04:11:09.037Z,99.90
2019-04-29T04:13:39.664Z,99.90
2019-04-29T04:16:13.680Z,99.90
2019-04-29T04:18:44.165Z,99.90
2019-04-29T04:21:14.733Z,99.90
2019-04-29T04:23:47.947Z,99.90
2019-04-29T04:26:18.454Z,99.90
2019-04-29T04:28:50.324Z,99.90
2019-04-29T04:31:20.884Z,99.90
2019-04-29T04:33:51.378Z,99.90
2019-04-29T04:36:21.872Z,99.90
2019-04-29T04:38:52.301Z,99.90
2019-04-29T04:41:22.888Z,99.90
2019-04-29T04:43:53.366Z,99.90
2019-04-29T04:46:23.899Z,99.90
2019-04-29T04:48:56.759Z,99.90
2019-04-29T04:51:27.301Z,99.90
2019-04-29T04:53:57.963Z,99.90
2019-04-29T04:56:29.207Z,99.90
2019-04-29T04:58:59.826Z,99.90
2019-04-29T05:01:30.532Z,99.90
2019-04-29T05:04:01.124Z,99.90
2019-04-29T05:06:31.656Z,99.90
2019-04-29T05:09:02.203Z,99.90
2019-04-29T05:11:32.794Z,99.90
2019-04-29T05:14:03.492Z,99.90
2019-04-29T05:16:34.080Z,99.90
2019-04-29T05:19:04.727Z,99.90
2019-04-29T05:21:35.243Z,99.90
2019-04-29T05:24:05.814Z,99.90
2019-04-29T05:26:36.303Z,99.90
2019-04-29T05:29:08.749Z,99.90
2019-04-29T05:31:39.271Z,99.90
2019-04-29T05:34:10.110Z,99.90
2019-04-29T05:36:59.727Z,99.90
2019-04-29T05:39:33.541Z,99.90
2019-04-29T05:42:07.713Z,99.90
2019-04-29T05:44:45.141Z,99.90
2019-04-29T05:47:34.829Z,99.90
2019-04-29T05:50:25.190Z,99.90
2019-04-29T05:53:16.365Z,99.90
2019-04-29T05:55:46.850Z,99.90
2019-04-29T05:58:17.397Z,99.90
2019-04-29T06:00:58.990Z,99.90
2019-04-29T06:03:29.656Z,99.90
2019-04-29T06:06:01.869Z,99.90
2019-04-29T06:08:34.559Z,99.90
2019-04-29T06:11:04.958Z,99.90
2019-04-29T06:13:35.575Z,99.90
2019-04-29T06:16:06.389Z,99.90
2019-04-29T06:18:36.926Z,99.90
2019-04-29T06:21:09.358Z,99.90
2019-04-29T06:23:41.358Z,99.90
2019-04-29T06:26:12.007Z,99.90
2019-04-29T06:28:42.761Z,99.90
2019-04-29T06:31:14.266Z,99.90
2019-04-29T06:33:44.940Z,99.90
2019-04-29T06:36:16.717Z,99.90
2019-04-29T06:38:47.387Z,99.90
2019-04-29T06:41:20.190Z,99.90
2019-04-29T06:43:54.163Z,99.90
2019-04-29T06:46:24.049Z,99.90
2019-04-29T06:48:54.582Z,99.90
2019-04-29T06:51:25.382Z,99.90
2019-04-29T06:53:55.992Z,99.90
2019-04-29T06:56:26.479Z,99.90
2019-04-29T06:58:57.197Z,99.90
2019-04-29T07:01:27.987Z,99.90
2019-04-29T07:03:59.894Z,99.90
2019-04-29T07:06:31.023Z,99.90
2019-04-29T07:09:01.927Z,99.90
2019-04-29T07:11:36.618Z,99.90
2019-04-29T07:14:08.035Z,99.90
2019-04-29T07:16:38.644Z,99.90
2019-04-29T07:19:09.112Z,99.90
2019-04-29T07:21:41.845Z,99.90
2019-04-29T07:24:11.702Z,99.90
2019-04-29T07:26:42.219Z,99.90
2019-04-29T07:29:12.704Z,99.90
2019-04-29T07:31:43.453Z,99.90
2019-04-29T07:34:14.016Z,99.90
2019-04-29T07:36:44.680Z,99.90
2019-04-29T07:39:15.301Z,99.90
2019-04-29T07:41:49.505Z,99.90
2019-04-29T07:44:19.951Z,99.90
2019-04-29T07:46:59.125Z,99.90
2019-04-29T07:49:25.036Z,99.90
2019-04-29T07:51:55.966Z,99.90
2019-04-29T07:54:26.667Z,99.90
2019-04-29T07:56:58.296Z,99.90
2019-04-29T07:59:28.720Z,99.90
2019-04-29T08:01:59.803Z,99.90
2019-04-29T08:04:31.719Z,99.90
2019-04-29T08:07:02.556Z,99.90
2019-04-29T08:09:33.355Z,99.90
2019-04-29T08:12:04.572Z,99.90
2019-04-29T08:14:35.382Z,99.90
2019-04-29T08:17:08.286Z,99.90
2019-04-29T08:19:38.924Z,99.90
2019-04-29T08:22:09.643Z,99.90
2019-04-29T08:24:40.277Z,99.90
2019-04-29T08:27:10.815Z,99.90
2019-04-29T08:29:41.306Z,99.90
2019-04-29T08:32:11.742Z,99.90
2019-04-29T08:34:42.565Z,99.90
2019-04-29T08:37:12.998Z,99.90
2019-04-29T08:39:43.519Z,99.90
2019-04-29T08:42:20.199Z,99.10
2019-04-29T08:45:09.845Z,99.10
2019-04-29T08:47:43.158Z,99.90
2019-04-29T08:50:15.184Z,99.60
2019-04-29T08:52:46.048Z,99.20
2019-04-29T08:55:19.405Z,99.90
2019-04-29T08:57:50.349Z,99.10
2019-04-29T09:00:21.168Z,99.10
2019-04-29T09:02:52.001Z,98.20
2019-04-29T09:05:22.733Z,98.80
2019-04-29T09:07:57.361Z,99.10
2019-04-29T09:10:25.809Z,97.70
2019-04-29T09:12:56.430Z,97.10
2019-04-29T09:15:27.087Z,97.50
2019-04-29T09:17:58.064Z,97.10
2019-04-29T09:20:28.819Z,96.60
2019-04-29T09:23:03.183Z,97.90
2019-04-29T09:26:02.493Z,96.80
2019-04-29T09:28:28.111Z,95.10
2019-04-29T09:30:58.501Z,96.10
2019-04-29T09:33:29.089Z,95.00
2019-04-29T09:35:59.716Z,96.10
2019-04-29T09:38:32.503Z,94.70
2019-04-29T09:41:21.641Z,95.10
2019-04-29T09:44:04.016Z,94.30
2019-04-29T09:46:35.910Z,94.50
2019-04-29T09:49:06.465Z,94.40
2019-04-29T09:51:38.259Z,93.20
2019-04-29T09:54:09.557Z,93.90
2019-04-29T09:56:41.462Z,92.30
2019-04-29T09:59:31.177Z,92.40
2019-04-29T10:02:20.797Z,92.20
2019-04-29T10:05:05.865Z,91.40
2019-04-29T10:07:36.755Z,91.20
2019-04-29T10:10:07.926Z,91.30
2019-04-29T10:12:38.669Z,91.10
2019-04-29T10:15:11.416Z,92.80
2019-04-29T10:17:55.842Z,92.80
2019-04-29T10:20:44.183Z,90.70
2019-04-29T10:23:14.994Z,91.30
2019-04-29T10:25:45.692Z,90.40
2019-04-29T10:28:16.610Z,89.30
2019-04-29T10:30:47.559Z,88.50
2019-04-29T10:33:19.451Z,90.30
2019-04-29T10:35:51.068Z,91.20
2019-04-29T10:38:21.644Z,90.70
2019-04-29T10:41:13.887Z,85.10
2019-04-29T10:44:03.652Z,87.80
2019-04-29T10:46:53.347Z,88.80
2019-04-29T10:49:29.349Z,89.20
2019-04-29T10:52:02.941Z,87.30
2019-04-29T10:54:32.735Z,88.40
2019-04-29T10:57:03.450Z,86.20
2019-04-29T10:59:36.455Z,86.30
2019-04-29T11:02:31.945Z,86.40
2019-04-29T11:05:23.984Z,86.60
2019-04-29T11:08:02.070Z,85.40
2019-04-29T11:10:30.962Z,83.70
2019-04-29T11:13:01.640Z,84.50
2019-04-29T11:15:35.329Z,84.10
2019-04-29T11:18:06.665Z,85.10
2019-04-29T11:20:37.557Z,84.10
2019-04-29T11:23:18.116Z,85.40
2019-04-29T11:26:09.360Z,85.40
2019-04-29T11:28:40.085Z,77.70
2019-04-29T11:31:19.077Z,78.60
2019-04-29T11:34:00.223Z,80.40
2019-04-29T11:36:30.921Z,75.30
2019-04-29T11:39:01.768Z,75.90
2019-04-29T11:41:34.131Z,75.10
2019-04-29T11:44:05.080Z,71.30
2019-04-29T11:46:35.999Z,66.90
2019-04-29T11:49:10.439Z,68.10
2019-04-29T11:52:07.642Z,66.90
2019-04-29T11:54:18.160Z,60.70
2019-04-29T11:56:48.213Z,59.10
2019-04-29T11:59:37.957Z,63.20
2019-04-29T12:02:24.258Z,58.30
2019-04-29T12:04:59.533Z,59.40
2019-04-29T12:07:32.559Z,58.30
2019-04-29T12:10:06.461Z,57.30
2019-04-29T12:12:35.173Z,51.20
2019-04-29T12:15:21.607Z,55.20
2019-04-29T12:18:11.364Z,54.40
2019-04-29T12:20:53.611Z,54.10
2019-04-29T12:23:24.244Z,55.60
2019-04-29T12:25:58.614Z,54.90
2019-04-29T12:28:27.306Z,54.80
2019-04-29T12:31:00.772Z,55.40
2019-04-29T12:33:40.798Z,52.50
2019-04-29T12:36:12.590Z,49.90
2019-04-29T12:39:03.354Z,47.30
2019-04-29T12:41:54.647Z,49.40
2019-04-29T12:44:45.580Z,47.90
2019-04-29T12:47:26.806Z,48.80
2019-04-29T12:49:55.012Z,52.00
2019-04-29T12:52:25.889Z,51.90
2019-04-29T12:54:56.538Z,51.60
2019-04-29T12:57:27.139Z,53.70
2019-04-29T12:59:57.766Z,49.80
2019-04-29T13:02:47.418Z,50.00
2019-04-29T13:05:36.274Z,52.50
2019-04-29T13:08:35.943Z,53.60
2019-04-29T13:11:07.388Z,52.70
2019-04-29T13:13:37.970Z,51.70
2019-04-29T13:16:29.768Z,49.10
2019-04-29T13:19:20.527Z,51.80
2019-04-29T13:21:51.627Z,50.60
2019-04-29T13:24:24.638Z,49.10
2019-04-29T13:26:54.691Z,49.10
2019-04-29T13:29:27.758Z,46.40
2019-04-29T13:32:01.548Z,47.20
2019-04-29T13:34:35.068Z,48.60
2019-04-29T13:37:07.825Z,48.90
2019-04-29T13:39:40.398Z,49.90
2019-04-29T13:42:15.310Z,49.20
2019-04-29T13:45:04.708Z,50.70
2019-04-29T13:47:33.660Z,52.00
2019-04-29T13:50:38.699Z,51.40
2019-04-29T13:52:56.069Z,51.40
2019-04-29T13:55:47.210Z,50.30
2019-04-29T13:57:59.237Z,51.10
2019-04-29T14:00:37.035Z,51.90
2019-04-29T14:03:17.362Z,53.00
2019-04-29T14:05:48.392Z,53.20
2019-04-29T14:08:19.085Z,53.20
2019-04-29T14:10:51.099Z,55.10
2019-04-29T14:13:22.056Z,56.30
2019-04-29T14:15:52.759Z,56.20
2019-04-29T14:18:25.907Z,56.20
2019-04-29T14:20:56.504Z,54.80
2019-04-29T14:23:27.117Z,55.90
2019-04-29T14:25:57.697Z,54.60
2019-04-29T14:28:28.414Z,55.30
2019-04-29T14:31:00.059Z,55.50
2019-04-29T14:33:36.209Z,56.00
2019-04-29T14:36:08.780Z,55.30
2019-04-29T14:38:40.499Z,55.70
2019-04-29T14:41:14.423Z,54.50
2019-04-29T14:43:57.480Z,55.30
2019-04-29T14:46:43.961Z,57.20
2019-04-29T14:49:22.084Z,56.80
2019-04-29T14:51:52.860Z,57.00
2019-04-29T14:54:23.375Z,56.80
2019-04-29T14:56:54.109Z,56.60
2019-04-29T14:59:24.922Z,57.60
2019-04-29T15:02:03.239Z,58.00
2019-04-29T15:04:37.123Z,58.00
2019-04-29T15:07:07.733Z,58.70
2019-04-29T15:09:55.797Z,61.00
2019-04-29T15:12:52.154Z,61.00
2019-04-29T15:15:39.008Z,60.80
2019-04-29T15:18:18.507Z,59.40
2019-04-29T15:20:55.919Z,58.30
2019-04-29T15:23:28.935Z,58.90
2019-04-29T15:25:57.530Z,57.10
2019-04-29T15:28:27.998Z,58.80
2019-04-29T15:30:58.661Z,61.40
2019-04-29T15:33:30.584Z,62.90
2019-04-29T15:36:01.802Z,63.90
2019-04-29T15:38:32.482Z,64.30
2019-04-29T15:41:05.375Z,64.00
2019-04-29T15:43:47.352Z,64.90
2019-04-29T15:46:11.440Z,62.10
2019-04-29T15:48:40.283Z,61.40
2019-04-29T15:51:13.895Z,61.30
2019-04-29T15:53:43.450Z,60.60
2019-04-29T15:56:28.420Z,61.00
2019-04-29T15:58:46.425Z,63.30
2019-04-29T16:01:18.240Z,65.30
2019-04-29T16:03:54.595Z,66.30
2019-04-29T16:06:41.389Z,66.10
2019-04-29T16:09:23.662Z,65.70
2019-04-29T16:12:05.035Z,63.30
2019-04-29T16:14:33.083Z,62.40
2019-04-29T16:17:03.748Z,60.80
2019-04-29T16:19:34.521Z,59.60
2019-04-29T16:22:05.159Z,61.40
2019-04-29T16:24:38.204Z,63.60
2019-04-29T16:27:10.355Z,66.70
2019-04-29T16:29:40.697Z,68.30
2019-04-29T16:32:13.525Z,68.10
2019-04-29T16:34:46.830Z,68.50
2019-04-29T16:37:19.395Z,71.10
2019-04-29T16:39:52.917Z,71.00
2019-04-29T16:42:26.935Z,72.90
2019-04-29T16:44:57.623Z,75.00
2019-04-29T16:47:29.178Z,78.20
2019-04-29T16:50:04.849Z,82.50
2019-04-29T16:52:33.673Z,87.70
2019-04-29T16:55:06.055Z,88.70
2019-04-29T16:57:37.033Z,89.50
2019-04-29T17:00:13.930Z,90.40
2019-04-29T17:02:41.315Z,90.70
2019-04-29T17:05:14.759Z,91.00
2019-04-29T17:07:45.690Z,91.50
2019-04-29T17:10:23.385Z,91.70
2019-04-29T17:12:54.350Z,92.10
2019-04-29T17:15:26.384Z,92.40
2019-04-29T17:17:57.195Z,92.90
2019-04-29T17:20:27.954Z,92.90
2019-04-29T17:23:00.449Z,93.30
2019-04-29T17:25:31.445Z,93.50
2019-04-29T17:28:12.017Z,93.90
2019-04-29T17:31:02.207Z,94.50
2019-04-29T17:33:49.506Z,95.10
2019-04-29T17:36:22.932Z,95.70
2019-04-29T17:38:48.461Z,95.90
2019-04-29T17:41:19.318Z,96.40
2019-04-29T17:44:09.058Z,96.90
2019-04-29T17:46:46.481Z,97.30
2019-04-29T17:49:29.352Z,97.70
2019-04-29T17:52:02.933Z,98.50
2019-04-29T17:54:35.900Z,99.20
2019-04-29T17:57:30.752Z,99.30
2019-04-29T18:00:17.180Z,99.90
2019-04-29T18:03:07.423Z,99.90
2019-04-29T18:05:57.795Z,99.90
2019-04-29T18:08:48.826Z,99.90
2019-04-29T18:11:19.831Z,99.90
2019-04-29T18:13:56.820Z,99.90
2019-04-29T18:16:32.164Z,99.90
2019-04-29T18:19:10.400Z,99.90
2019-04-29T18:22:08.885Z,99.90
2019-04-29T18:24:51.865Z,99.90
2019-04-29T18:27:25.325Z,99.90
2019-04-29T18:29:56.380Z,99.90
2019-04-29T18:32:34.996Z,99.90
2019-04-29T18:34:59.750Z,99.90
2019-04-29T18:37:36.944Z,99.90
2019-04-29T18:40:03.624Z,99.90
2019-04-29T18:42:38.378Z,99.90
2019-04-29T18:45:09.027Z,99.90
2019-04-29T18:47:41.144Z,99.90
2019-04-29T18:50:15.853Z,99.90
2019-04-29T18:52:47.398Z,99.90
2019-04-29T18:55:19.124Z,99.90
2019-04-29T18:57:50.511Z,99.90
2019-04-29T19:00:25.504Z,99.90
2019-04-29T19:03:00.979Z,99.90
2019-04-29T19:05:37.417Z,99.90
2019-04-29T19:08:14.357Z,99.90
2019-04-29T19:10:42.297Z,99.90
2019-04-29T19:13:14.910Z,99.90
2019-04-29T19:15:48.491Z,99.90
2019-04-29T19:18:21.077Z,99.90
2019-04-29T19:20:52.889Z,99.90
2019-04-29T19:23:29.381Z,99.90
2019-04-29T19:25:57.151Z,99.90
2019-04-29T19:28:31.033Z,99.90
2019-04-29T19:31:03.078Z,99.90
2019-04-29T19:33:38.848Z,99.90
2019-04-29T19:36:09.145Z,99.90
2019-04-29T19:38:43.266Z,99.90
2019-04-29T19:41:16.378Z,99.90
2019-04-29T19:43:48.261Z,99.90
2019-04-29T19:46:24.322Z,99.90
2019-04-29T19:48:51.278Z,99.90
2019-04-29T19:51:23.113Z,99.90
2019-04-29T19:53:55.248Z,99.90
2019-04-29T19:56:27.007Z,99.90
2019-04-29T19:59:10.260Z,99.90
2019-04-29T20:01:32.714Z,99.90
2019-04-29T20:04:22.394Z,99.90
2019-04-29T20:06:50.513Z,99.90
2019-04-29T20:09:23.726Z,99.90
2019-04-29T20:11:55.857Z,99.90
2019-04-29T20:14:31.554Z,99.90
2019-04-29T20:17:19.540Z,99.90
2019-04-29T20:20:09.962Z,99.90
2019-04-29T20:22:52.443Z,99.90
2019-04-29T20:25:30.868Z,99.90
2019-04-29T20:28:05.537Z,99.90
2019-04-29T20:30:28.279Z,99.90
2019-04-29T20:33:01.166Z,99.90
2019-04-29T20:35:32.984Z,99.90
2019-04-29T20:38:05.507Z,99.90
2019-04-29T20:40:41.517Z,99.90
2019-04-29T20:43:08.704Z,99.90
2019-04-29T20:45:39.767Z,99.90
2019-04-29T20:48:11.110Z,99.90
2019-04-29T20:50:46.112Z,99.90
2019-04-29T20:53:30.772Z,99.90
2019-04-29T20:56:10.231Z,99.90
2019-04-29T20:58:33.298Z,99.90
2019-04-29T21:01:10.915Z,99.90
2019-04-29T21:03:41.053Z,99.90
2019-04-29T21:06:10.717Z,99.90
2019-04-29T21:08:45.021Z,99.90
2019-04-29T21:11:21.326Z,99.90
2019-04-29T21:14:00.557Z,99.90
2019-04-29T21:16:34.884Z,99.90
2019-04-29T21:19:09.094Z,99.90
2019-04-29T21:21:41.843Z,99.90
2019-04-29T21:24:18.232Z,99.90
2019-04-29T21:26:45.949Z,99.90
2019-04-29T21:29:19.468Z,99.90
2019-04-29T21:31:50.612Z,99.90
2019-04-29T21:34:25.480Z,99.90
2019-04-29T21:37:06.591Z,99.90
2019-04-29T21:39:55.063Z,99.90
2019-04-29T21:42:35.740Z,99.90
2019-04-29T21:45:08.786Z,99.90
2019-04-29T21:47:45.676Z,99.90
2019-04-29T21:50:12.038Z,99.90
2019-04-29T21:52:42.699Z,99.90
2019-04-29T21:55:13.519Z,99.90
2019-04-29T21:57:44.267Z,99.90
2019-04-29T22:00:23.867Z,99.90
2019-04-29T22:02:50.896Z,99.90
2019-04-29T22:05:22.726Z,99.90
2019-04-29T22:07:53.288Z,99.90
2019-04-29T22:10:28.860Z,99.90
2019-04-29T22:13:01.940Z,99.90
2019-04-29T22:15:32.848Z,99.90
2019-04-29T22:18:01.983Z,99.90
2019-04-29T22:20:37.591Z,99.90
2019-04-29T22:23:12.875Z,99.90
2019-04-29T22:25:41.133Z,99.90
2019-04-29T22:28:14.954Z,99.90
2019-04-29T22:30:42.997Z,99.90
2019-04-29T22:33:15.319Z,99.90
2019-04-29T22:35:45.837Z,99.90
2019-04-29T22:38:18.820Z,99.90
2019-04-29T22:40:50.779Z,99.90
2019-04-29T22:43:36.019Z,99.90
2019-04-29T22:46:09.525Z,99.90
2019-04-29T22:48:40.538Z,99.90
2019-04-29T22:51:15.162Z,99.90
2019-04-29T22:53:48.100Z,99.90
2019-04-29T22:56:16.890Z,99.90
2019-04-29T22:58:47.541Z,99.90
2019-04-29T23:01:18.270Z,99.90
2019-04-29T23:03:49.327Z,99.90
2019-04-29T23:06:19.886Z,99.90
2019-04-29T23:08:50.698Z,99.90
2019-04-29T23:11:21.225Z,99.90
2019-04-29T23:13:51.752Z,99.90
2019-04-29T23:16:22.239Z,99.90
2019-04-29T23:18:52.844Z,99.90
2019-04-29T23:21:43.407Z,99.90
2019-04-29T23:24:32.278Z,99.90
2019-04-29T23:27:03.001Z,99.90
2019-04-29T23:29:37.077Z,99.90
2019-04-29T23:32:08.289Z,99.90
2019-04-29T23:34:38.980Z,99.90
2019-04-29T23:37:09.467Z,99.90
2019-04-29T23:39:40.037Z,99.90
2019-04-29T23:42:12.120Z,99.90
2019-04-29T23:44:44.212Z,99.90
2019-04-29T23:47:15.879Z,99.90
2019-04-29T23:49:47.135Z,99.90
2019-04-29T23:52:18.038Z,99.90
2019-04-29T23:54:48.820Z,99.90
2019-04-29T23:57:28.176Z,99.90
